Flugwetter

[source: ADDS]
METAR
LOWL 171950Z AUTO VRB02KT 9999 FEW240 12/08 Q1019 NOSIG =
TAF LOWL 171715Z 1718/1818 10004KT CAVOK TX17/1815Z TN08/1803Z BECMG 1723/1801 5000 BR SCT009 TEMPO 1802/1809 1200 BCFG BKN004 PROB40 1804/1808 VRB02KT 0200 FG VV001 BECMG 1812/1814 9999 NSW FEW040
TAF
TAF LOWL 171715Z 1718/1818 10004KT CAVOK TX17/1815Z TN08/1803Z BECMG 1723/1801 5000 BR SCT009 TEMPO 1802/1809 1200 BCFG BKN004 PROB40 1804/1808 VRB02KT 0200 FG VV001 BECMG 1812/1814 9999 NSW FEW040 =